Time;durP1;ratioP1;P1;durP2;ratioP2;P2;SDS_P1;SDS_P2;PMS_P1;PMS_P2;Temp;Humidity;BMP_temperature;BMP_pressure;BME280_temperature;BME280_humidity;BME280_pressure;Samples;Min_cycle;Max_cycle;Signal;HPM_P1;HPM_P2
2021/01/14 00:01:39;;;;;;;15.70;8.03;;;;;;;;;;5025976;28;20203;-94
2021/01/14 00:04:05;;;;;;;13.88;8.20;;;;;;;;;;5024988;28;20466;-93
2021/01/14 00:06:31;;;;;;;12.88;8.55;;;;;;;;;;5021131;28;20224;-93
2021/01/14 00:08:57;;;;;;;13.35;9.20;;;;;;;;;;5023027;28;20648;-95
2021/01/14 00:11:24;;;;;;;13.43;8.98;;;;;;;;;;5022729;28;20216;-93
2021/01/14 00:13:50;;;;;;;12.90;8.50;;;;;;;;;;5027815;28;20220;-95
2021/01/14 00:16:16;;;;;;;14.30;8.60;;;;;;;;;;5028092;28;20219;-95
2021/01/14 00:18:42;;;;;;;15.40;8.75;;;;;;;;;;5022535;28;20674;-95
2021/01/14 00:21:08;;;;;;;11.93;7.90;;;;;;;;;;5022994;28;20210;-94
2021/01/14 00:23:34;;;;;;;14.40;8.00;;;;;;;;;;5021544;28;20243;-95
2021/01/14 00:26:00;;;;;;;13.00;8.00;;;;;;;;;;5022588;28;21311;-94
2021/01/14 00:28:27;;;;;;;15.35;8.23;;;;;;;;;;5020277;28;20482;-96
2021/01/14 00:30:53;;;;;;;13.35;8.00;;;;;;;;;;5061376;28;20239;-92
2021/01/14 00:33:19;;;;;;;10.93;7.55;;;;;;;;;;5061949;28;20223;-92
2021/01/14 00:35:45;;;;;;;10.40;7.57;;;;;;;;;;5061203;28;20289;-94
2021/01/14 00:38:11;;;;;;;11.07;7.30;;;;;;;;;;5063488;28;20513;-94
2021/01/14 00:40:37;;;;;;;10.43;7.30;;;;;;;;;;5058893;28;20674;-94
2021/01/14 00:43:03;;;;;;;10.80;6.93;;;;;;;;;;5062884;28;20191;-94
2021/01/14 00:45:31;;;;;;;11.07;7.60;;;;;;;;;;5060353;28;20210;-93
2021/01/14 00:47:57;;;;;;;11.05;7.97;;;;;;;;;;5066757;28;20671;-93
2021/01/14 00:50:23;;;;;;;10.13;7.50;;;;;;;;;;5062583;28;20219;-95
2021/01/14 00:52:49;;;;;;;11.93;7.88;;;;;;;;;;5062891;28;20196;-95
2021/01/14 00:55:16;;;;;;;12.20;7.70;;;;;;;;;;5062837;28;20231;-92
2021/01/14 00:57:42;;;;;;;14.45;8.00;;;;;;;;;;5056226;28;20208;-92
2021/01/14 01:00:09;;;;;;;10.57;7.07;;;;;;;;;;5063253;28;20239;-93
2021/01/14 01:02:36;;;;;;;13.13;7.43;;;;;;;;;;5059387;28;20207;-94
2021/01/14 01:05:02;;;;;;;10.15;6.95;;;;;;;;;;5062198;28;20238;-95
2021/01/14 01:07:28;;;;;;;13.15;7.32;;;;;;;;;;5060234;28;20226;-93
2021/01/14 01:09:54;;;;;;;8.80;6.73;;;;;;;;;;5062862;28;20207;-94
2021/01/14 01:12:20;;;;;;;12.80;7.30;;;;;;;;;;5060124;28;20456;-93
2021/01/14 01:14:46;;;;;;;12.10;7.43;;;;;;;;;;5056541;28;20498;-93
2021/01/14 01:17:12;;;;;;;10.85;7.65;;;;;;;;;;5061566;28;20214;-95
2021/01/14 01:19:39;;;;;;;12.55;8.00;;;;;;;;;;5057743;28;20714;-93
2021/01/14 01:22:05;;;;;;;11.30;7.47;;;;;;;;;;5064455;28;20214;-92
2021/01/14 01:24:31;;;;;;;13.90;7.93;;;;;;;;;;5059880;28;20208;-93
2021/01/14 01:26:57;;;;;;;12.60;7.67;;;;;;;;;;5061008;28;20446;-94
2021/01/14 01:29:23;;;;;;;12.80;7.78;;;;;;;;;;5058910;28;20470;-94
2021/01/14 01:31:49;;;;;;;11.30;7.40;;;;;;;;;;5061246;28;20203;-91
2021/01/14 01:34:16;;;;;;;12.40;6.90;;;;;;;;;;5061954;28;20235;-92
2021/01/14 01:36:43;;;;;;;11.77;6.75;;;;;;;;;;5060771;28;20214;-94
2021/01/14 01:39:09;;;;;;;13.40;7.38;;;;;;;;;;5063818;28;20203;-94
2021/01/14 01:41:35;;;;;;;11.70;7.28;;;;;;;;;;5062452;28;20203;-93
2021/01/14 01:44:01;;;;;;;14.83;7.57;;;;;;;;;;5074357;28;20194;-94
2021/01/14 01:46:31;;;;;;;10.63;6.93;;;;;;;;;;5063172;28;20469;-95
2021/01/14 01:48:58;;;;;;;10.13;6.75;;;;;;;;;;5061455;28;20203;-93
2021/01/14 01:51:26;;;;;;;8.75;6.68;;;;;;;;;;5061983;28;20210;-94
2021/01/14 01:53:54;;;;;;;10.50;7.00;;;;;;;;;;5060064;28;20235;-92
2021/01/14 01:56:20;;;;;;;10.05;6.95;;;;;;;;;;5063178;28;20660;-94
2021/01/14 01:58:46;;;;;;;8.45;6.75;;;;;;;;;;5058429;28;20578;-92
2021/01/14 02:01:12;;;;;;;9.48;6.88;;;;;;;;;;5060927;28;20203;-92
2021/01/14 02:03:38;;;;;;;14.75;7.47;;;;;;;;;;5058511;28;20761;-93
2021/01/14 02:06:04;;;;;;;12.75;8.00;;;;;;;;;;5062066;28;21083;-92
2021/01/14 02:08:36;;;;;;;10.38;6.43;;;;;;;;;;5059409;28;20200;-93
2021/01/14 02:11:08;;;;;;;9.00;6.60;;;;;;;;;;5061508;28;20230;-92
2021/01/14 02:13:36;;;;;;;10.88;6.57;;;;;;;;;;5056824;28;20257;-94
2021/01/14 02:16:03;;;;;;;10.80;6.30;;;;;;;;;;5053281;28;20218;-93
2021/01/14 02:18:30;;;;;;;7.57;5.60;;;;;;;;;;5060602;28;20203;-92
2021/01/14 02:20:57;;;;;;;9.30;6.80;;;;;;;;;;5058233;28;20651;-93
2021/01/14 02:23:26;;;;;;;7.95;6.25;;;;;;;;;;5058905;28;20208;-94
2021/01/14 02:26:10;;;;;;;9.15;7.18;;;;;;;;;;5057596;28;20211;-92
2021/01/14 02:28:38;;;;;;;9.68;6.95;;;;;;;;;;5055845;28;20203;-93
2021/01/14 02:31:05;;;;;;;10.40;6.60;;;;;;;;;;5062013;28;20207;-92
2021/01/14 02:33:31;;;;;;;13.30;7.50;;;;;;;;;;5063990;28;20227;-92
2021/01/14 02:35:57;;;;;;;10.77;7.20;;;;;;;;;;5062063;28;20203;-91
2021/01/14 02:38:23;;;;;;;12.52;6.95;;;;;;;;;;5065317;28;20210;-93
2021/01/14 02:40:49;;;;;;;10.30;7.35;;;;;;;;;;5064650;28;20214;-92
2021/01/14 02:43:15;;;;;;;9.30;7.25;;;;;;;;;;5059810;28;20229;-92
2021/01/14 02:45:42;;;;;;;9.75;7.10;;;;;;;;;;5064592;28;20210;-91
2021/01/14 02:48:10;;;;;;;10.50;7.72;;;;;;;;;;5061524;28;20239;-92
2021/01/14 02:50:38;;;;;;;11.35;7.85;;;;;;;;;;5065012;28;20214;-92
2021/01/14 02:53:04;;;;;;;15.73;7.80;;;;;;;;;;5062552;28;20203;-91
2021/01/14 02:55:30;;;;;;;11.38;8.10;;;;;;;;;;5064394;28;20211;-92
2021/01/14 02:57:57;;;;;;;13.75;9.05;;;;;;;;;;5060066;28;20204;-91
2021/01/14 03:00:23;;;;;;;11.98;8.63;;;;;;;;;;5064894;28;20203;-92
2021/01/14 03:02:50;;;;;;;12.43;8.23;;;;;;;;;;5061919;28;20199;-92
2021/01/14 03:05:16;;;;;;;11.80;8.45;;;;;;;;;;5062842;28;20214;-91
2021/01/14 03:07:42;;;;;;;10.63;7.43;;;;;;;;;;5065669;28;20203;-91
2021/01/14 03:10:08;;;;;;;10.30;7.45;;;;;;;;;;5062252;28;20207;-91
2021/01/14 03:12:36;;;;;;;11.40;7.80;;;;;;;;;;5064144;28;20226;-91
2021/01/14 03:15:02;;;;;;;11.18;6.65;;;;;;;;;;5052989;28;20223;-91
2021/01/14 03:17:28;;;;;;;11.43;7.15;;;;;;;;;;5064169;28;20214;-91
2021/01/14 03:19:56;;;;;;;11.10;6.80;;;;;;;;;;5060011;28;20211;-91
2021/01/14 03:22:22;;;;;;;12.10;7.70;;;;;;;;;;5060056;28;20450;-91
2021/01/14 03:24:48;;;;;;;10.80;7.10;;;;;;;;;;5064587;28;20225;-91
2021/01/14 03:27:14;;;;;;;9.80;7.82;;;;;;;;;;5060675;28;20476;-91
2021/01/14 03:29:40;;;;;;;12.63;7.30;;;;;;;;;;5062549;28;20227;-91
2021/01/14 03:32:06;;;;;;;10.00;7.03;;;;;;;;;;5062248;28;20468;-91
2021/01/14 03:34:32;;;;;;;10.03;6.97;;;;;;;;;;5065311;28;20497;-92
2021/01/14 03:37:00;;;;;;;11.63;7.00;;;;;;;;;;5061953;28;20457;-91
2021/01/14 03:39:26;;;;;;;13.00;8.55;;;;;;;;;;5064434;28;20298;-91
2021/01/14 03:41:52;;;;;;;12.23;8.30;;;;;;;;;;5061596;28;20219;-91
2021/01/14 03:44:18;;;;;;;15.40;10.23;;;;;;;;;;5064327;28;20211;-91
2021/01/14 03:46:48;;;;;;;11.18;7.55;;;;;;;;;;5055045;28;20225;-91
2021/01/14 03:49:14;;;;;;;10.15;7.60;;;;;;;;;;5057214;28;20209;-92
2021/01/14 03:51:42;;;;;;;13.55;6.85;;;;;;;;;;5058144;28;20199;-91
2021/01/14 03:54:09;;;;;;;12.65;7.60;;;;;;;;;;5059922;28;20231;-91
2021/01/14 03:56:36;;;;;;;12.25;7.82;;;;;;;;;;5063569;28;20261;-91
2021/01/14 03:59:02;;;;;;;13.52;8.88;;;;;;;;;;5056485;28;20224;-90
2021/01/14 04:01:28;;;;;;;12.07;8.02;;;;;;;;;;5064102;28;20253;-91
2021/01/14 04:03:54;;;;;;;12.02;7.70;;;;;;;;;;5061050;28;20219;-92
2021/01/14 04:06:20;;;;;;;15.70;7.70;;;;;;;;;;5062544;28;20233;-91
2021/01/14 04:08:46;;;;;;;9.77;6.70;;;;;;;;;;5063027;28;20489;-91
2021/01/14 04:11:13;;;;;;;9.50;6.57;;;;;;;;;;5061574;28;20203;-90
2021/01/14 04:13:41;;;;;;;10.73;7.50;;;;;;;;;;5064160;28;20489;-90
2021/01/14 04:16:12;;;;;;;9.98;7.45;;;;;;;;;;5061232;28;20659;-90
2021/01/14 04:18:38;;;;;;;12.70;7.90;;;;;;;;;;5063596;28;20234;-90
2021/01/14 04:21:04;;;;;;;13.00;8.47;;;;;;;;;;5061452;28;20207;-90
2021/01/14 04:23:30;;;;;;;14.40;7.80;;;;;;;;;;5064444;28;20937;-89
2021/01/14 04:25:56;;;;;;;13.25;7.80;;;;;;;;;;5061891;28;20235;-90
2021/01/14 04:28:23;;;;;;;12.83;7.30;;;;;;;;;;5061998;28;20204;-91
2021/01/14 04:30:49;;;;;;;12.18;7.80;;;;;;;;;;5070502;28;20484;-89
2021/01/14 04:33:15;;;;;;;13.57;8.23;;;;;;;;;;5071035;28;20991;-90
2021/01/14 04:35:48;;;;;;;16.45;7.20;;;;;;;;;;5062599;28;20472;-90
2021/01/14 04:38:14;;;;;;;10.48;7.38;;;;;;;;;;5058371;28;20195;-89
2021/01/14 04:40:40;;;;;;;14.82;9.52;;;;;;;;;;5062551;28;20207;-90
2021/01/14 04:43:06;;;;;;;17.15;10.15;;;;;;;;;;5060780;28;20253;-89
2021/01/14 04:45:33;;;;;;;18.23;10.68;;;;;;;;;;5063748;28;20240;-90
2021/01/14 04:48:01;;;;;;;15.93;10.23;;;;;;;;;;5052762;28;20203;-90
2021/01/14 04:50:27;;;;;;;16.77;9.45;;;;;;;;;;5056521;28;20662;-90
2021/01/14 04:52:55;;;;;;;14.60;9.95;;;;;;;;;;5061482;28;20257;-90
2021/01/14 04:55:25;;;;;;;11.95;8.50;;;;;;;;;;5058729;28;20277;-89
2021/01/14 04:57:52;;;;;;;17.63;10.93;;;;;;;;;;5059955;28;20605;-90
2021/01/14 05:00:19;;;;;;;18.10;11.90;;;;;;;;;;5058028;28;20255;-89
2021/01/14 05:02:57;;;;;;;26.88;10.57;;;;;;;;;;5063849;28;20701;-90
2021/01/14 05:05:24;;;;;;;13.95;9.07;;;;;;;;;;5059726;28;20225;-89
2021/01/14 05:08:02;;;;;;;17.80;10.23;;;;;;;;;;5060820;28;20210;-90
2021/01/14 05:10:30;;;;;;;21.58;12.75;;;;;;;;;;5058602;28;20794;-90
2021/01/14 05:12:56;;;;;;;22.83;13.85;;;;;;;;;;5060513;28;20191;-90
2021/01/14 05:15:23;;;;;;;19.58;13.35;;;;;;;;;;5059520;28;20331;-90
2021/01/14 05:17:49;;;;;;;20.55;12.40;;;;;;;;;;5058430;28;20199;-90
2021/01/14 05:20:16;;;;;;;18.88;12.75;;;;;;;;;;5061527;28;20206;-91
2021/01/14 05:22:46;;;;;;;20.48;12.35;;;;;;;;;;5058451;28;20237;-90
2021/01/14 05:25:12;;;;;;;18.50;12.35;;;;;;;;;;5061863;28;20670;-90
2021/01/14 05:27:38;;;;;;;16.98;9.82;;;;;;;;;;5055256;28;20203;-90
2021/01/14 05:30:05;;;;;;;13.75;9.10;;;;;;;;;;5060791;28;20710;-90
2021/01/14 05:32:34;;;;;;;16.38;11.68;;;;;;;;;;5058640;28;20211;-90
2021/01/14 05:35:00;;;;;;;18.45;11.98;;;;;;;;;;5055380;28;20227;-90
2021/01/14 05:37:28;;;;;;;17.55;11.40;;;;;;;;;;5050806;28;20207;-90
2021/01/14 05:39:54;;;;;;;14.63;10.32;;;;;;;;;;5052963;28;20191;-89
2021/01/14 05:42:20;;;;;;;16.13;11.27;;;;;;;;;;5058956;28;20234;-90
2021/01/14 05:44:46;;;;;;;14.77;9.48;;;;;;;;;;5055317;28;20211;-90
2021/01/14 05:47:21;;;;;;;13.32;9.45;;;;;;;;;;5052755;28;20204;-90
2021/01/14 05:50:02;;;;;;;16.67;11.07;;;;;;;;;;5054823;28;20207;-91
2021/01/14 05:52:30;;;;;;;26.75;16.15;;;;;;;;;;5056328;28;20206;-89
2021/01/14 05:55:06;;;;;;;26.35;14.98;;;;;;;;;;5054547;28;20238;-90
2021/01/14 05:57:33;;;;;;;22.52;14.60;;;;;;;;;;5055982;28;20203;-93
2021/01/14 06:00:00;;;;;;;22.13;14.10;;;;;;;;;;5056198;28;20209;-91
2021/01/14 06:02:30;;;;;;;30.63;15.93;;;;;;;;;;5057083;28;20203;-93
2021/01/14 06:04:56;;;;;;;30.55;14.65;;;;;;;;;;5057123;28;20195;-93
2021/01/14 06:07:22;;;;;;;16.33;9.45;;;;;;;;;;5055241;28;20199;-93
2021/01/14 06:09:49;;;;;;;17.58;10.10;;;;;;;;;;5057888;28;20207;-93
2021/01/14 06:12:16;;;;;;;14.13;8.77;;;;;;;;;;5058381;28;20585;-92
2021/01/14 06:14:42;;;;;;;15.57;9.10;;;;;;;;;;5061701;28;20784;-92
2021/01/14 06:17:09;;;;;;;16.55;9.63;;;;;;;;;;5058012;28;20219;-93
2021/01/14 06:19:36;;;;;;;17.67;8.77;;;;;;;;;;5062829;28;20203;-92
2021/01/14 06:22:02;;;;;;;14.88;8.30;;;;;;;;;;5058284;28;20211;-93
2021/01/14 06:24:28;;;;;;;20.60;11.30;;;;;;;;;;5057508;28;20222;-92
2021/01/14 06:26:56;;;;;;;17.63;10.32;;;;;;;;;;5062454;28;20211;-92
2021/01/14 06:29:24;;;;;;;26.65;14.05;;;;;;;;;;5058711;28;20238;-93
2021/01/14 06:31:50;;;;;;;28.55;15.65;;;;;;;;;;5062971;28;20225;-94
2021/01/14 06:34:17;;;;;;;29.92;15.40;;;;;;;;;;5061523;28;20227;-91
2021/01/14 06:36:46;;;;;;;35.75;16.30;;;;;;;;;;5062080;28;20585;-93
2021/01/14 06:39:13;;;;;;;24.10;15.10;;;;;;;;;;5056710;28;20705;-92
2021/01/14 06:41:40;;;;;;;26.60;15.52;;;;;;;;;;5060549;28;20203;-91
2021/01/14 06:44:08;;;;;;;31.13;16.65;;;;;;;;;;5059124;28;20203;-91
2021/01/14 06:46:35;;;;;;;31.35;16.88;;;;;;;;;;5060579;28;20203;-91
2021/01/14 06:49:06;;;;;;;26.75;16.73;;;;;;;;;;5061362;28;20208;-91
2021/01/14 06:51:40;;;;;;;25.40;16.48;;;;;;;;;;5059550;28;20211;-91
2021/01/14 06:54:09;;;;;;;26.40;17.90;;;;;;;;;;5062006;28;20314;-93
2021/01/14 06:56:40;;;;;;;25.98;16.70;;;;;;;;;;5060003;28;20211;-91
2021/01/14 06:59:07;;;;;;;32.63;18.67;;;;;;;;;;5062904;28;20212;-93
2021/01/14 07:01:39;;;;;;;26.80;16.77;;;;;;;;;;5058462;28;20218;-93
2021/01/14 07:04:10;;;;;;;30.13;18.15;;;;;;;;;;5060253;28;20218;-92
2021/01/14 07:06:37;;;;;;;33.83;17.42;;;;;;;;;;5058954;28;20211;-94
2021/01/14 07:09:09;;;;;;;34.92;18.67;;;;;;;;;;5063328;28;20204;-93
2021/01/14 07:11:39;;;;;;;30.33;19.90;;;;;;;;;;5054027;28;20223;-94
2021/01/14 07:14:11;;;;;;;33.03;18.75;;;;;;;;;;5073460;28;20200;-92
2021/01/14 07:16:40;;;;;;;43.75;22.77;;;;;;;;;;5069729;28;20226;-93
2021/01/14 07:19:06;;;;;;;42.05;23.13;;;;;;;;;;5061082;28;20683;-94
2021/01/14 07:21:34;;;;;;;31.20;17.83;;;;;;;;;;5064876;28;20203;-95
2021/01/14 07:24:03;;;;;;;17.75;11.43;;;;;;;;;;5060295;28;20207;-94
2021/01/14 07:26:29;;;;;;;14.60;9.48;;;;;;;;;;5070343;28;20199;-96
2021/01/14 07:28:56;;;;;;;14.63;8.90;;;;;;;;;;5065436;28;20204;-95
2021/01/14 07:31:22;;;;;;;13.15;8.88;;;;;;;;;;5064459;28;20906;-95
2021/01/14 07:33:49;;;;;;;9.45;7.70;;;;;;;;;;5056378;28;20207;-96
2021/01/14 07:36:16;;;;;;;7.60;5.35;;;;;;;;;;5066007;28;20635;-95
2021/01/14 07:38:47;;;;;;;11.50;6.80;;;;;;;;;;5066996;28;20233;-95
2021/01/14 07:41:13;;;;;;;16.48;9.77;;;;;;;;;;5065689;28;20215;-96
2021/01/14 07:43:40;;;;;;;11.48;7.40;;;;;;;;;;5058466;28;20203;-96
2021/01/14 07:46:12;;;;;;;14.18;9.20;;;;;;;;;;5063132;28;20224;-96
2021/01/14 07:48:39;;;;;;;9.88;6.75;;;;;;;;;;5063366;28;20204;-95
2021/01/14 07:51:07;;;;;;;10.13;6.82;;;;;;;;;;5063952;28;20200;-96
2021/01/14 07:53:33;;;;;;;11.48;6.95;;;;;;;;;;5066201;28;20203;-96
2021/01/14 07:56:14;;;;;;;8.57;6.32;;;;;;;;;;5066286;28;20215;-96
2021/01/14 07:58:44;;;;;;;10.82;6.28;;;;;;;;;;5060131;28;20207;-96
2021/01/14 08:01:11;;;;;;;10.98;7.20;;;;;;;;;;5065663;28;20263;-96
2021/01/14 08:03:37;;;;;;;11.45;6.75;;;;;;;;;;5069564;28;20208;-95
2021/01/14 08:06:17;;;;;;;10.27;7.28;;;;;;;;;;5067932;28;20204;-96
2021/01/14 08:08:54;;;;;;;8.13;6.47;;;;;;;;;;5065769;28;20211;-96
2021/01/14 08:11:22;;;;;;;8.00;6.10;;;;;;;;;;5066007;28;20303;-95
2021/01/14 08:14:08;;;;;;;9.27;6.25;;;;;;;;;;5047169;28;20215;-96
2021/01/14 08:16:35;;;;;;;11.30;7.13;;;;;;;;;;5058330;28;20521;-96
2021/01/14 08:19:08;;;;;;;9.60;6.80;;;;;;;;;;5065848;28;20207;-96
2021/01/14 08:21:36;;;;;;;9.90;7.00;;;;;;;;;;5066027;28;20306;-96
2021/01/14 08:24:02;;;;;;;7.85;6.20;;;;;;;;;;5063612;28;20211;-96
2021/01/14 08:26:37;;;;;;;9.73;6.35;;;;;;;;;;5065715;28;20207;-96
2021/01/14 08:29:03;;;;;;;11.85;6.95;;;;;;;;;;5063028;28;20226;-96
2021/01/14 08:31:36;;;;;;;8.20;6.93;;;;;;;;;;5055674;28;20834;-96
2021/01/14 08:34:02;;;;;;;9.60;7.20;;;;;;;;;;5044493;28;20257;-96
2021/01/14 08:36:29;;;;;;;6.20;4.85;;;;;;;;;;5063292;28;20306;-96
2021/01/14 08:38:57;;;;;;;7.30;4.65;;;;;;;;;;5064358;28;20207;-96
2021/01/14 08:41:26;;;;;;;3.90;3.50;;;;;;;;;;5059555;28;20285;-96
2021/01/14 08:43:55;;;;;;;4.88;3.85;;;;;;;;;;5067823;28;20599;-96
2021/01/14 08:46:37;;;;;;;4.95;3.30;;;;;;;;;;5065230;28;20203;-96
2021/01/14 08:49:10;;;;;;;3.67;3.35;;;;;;;;;;5064478;28;20267;-95
2021/01/14 08:51:38;;;;;;;3.83;3.13;;;;;;;;;;5052828;28;20225;-96
2021/01/14 08:54:05;;;;;;;5.40;3.70;;;;;;;;;;5059774;28;20255;-96
2021/01/14 08:56:31;;;;;;;5.47;3.53;;;;;;;;;;5061169;28;20207;-96
2021/01/14 08:59:03;;;;;;;5.25;3.78;;;;;;;;;;5066571;28;20213;-94
2021/01/14 09:01:32;;;;;;;6.95;5.25;;;;;;;;;;5067050;28;21730;-96
2021/01/14 09:03:58;;;;;;;6.63;4.90;;;;;;;;;;5208341;22;20288;-96
2021/01/14 09:06:28;;;;;;;5.25;4.70;;;;;;;;;;5008107;28;20237;-94
2021/01/14 09:08:55;;;;;;;6.55;4.85;;;;;;;;;;5003111;28;20242;-96
2021/01/14 09:11:29;;;;;;;6.40;4.75;;;;;;;;;;4991652;28;20204;-96
2021/01/14 09:14:04;;;;;;;5.13;4.60;;;;;;;;;;5011849;28;20272;-96
2021/01/14 09:16:52;;;;;;;8.52;6.15;;;;;;;;;;5013873;28;20279;-96
2021/01/14 09:19:20;;;;;;;9.35;5.53;;;;;;;;;;4984097;28;20259;-96
2021/01/14 09:21:59;;;;;;;8.10;5.22;;;;;;;;;;5008065;28;20215;-96
2021/01/14 09:24:25;;;;;;;5.82;4.72;;;;;;;;;;4989390;28;20232;-96
2021/01/14 09:26:55;;;;;;;7.03;4.60;;;;;;;;;;5005906;28;20222;-96
2021/01/14 09:29:40;;;;;;;5.50;4.80;;;;;;;;;;5011615;28;20231;-95
2021/01/14 09:32:13;;;;;;;5.80;4.60;;;;;;;;;;5012474;28;20266;-96
2021/01/14 09:34:40;;;;;;;6.45;4.40;;;;;;;;;;5006289;28;20249;-96
2021/01/14 09:37:16;;;;;;;6.10;4.90;;;;;;;;;;4991227;28;20254;-96
2021/01/14 09:42:48;;;;;;;6.60;4.95;;;;;;;;;;5016563;28;20225;-96
2021/01/14 09:48:19;;;;;;;7.00;4.80;;;;;;;;;;4967979;28;20285;-96
2021/01/14 09:53:53;;;;;;;5.63;4.65;;;;;;;;;;4954642;29;20262;-96
2021/01/14 09:56:26;;;;;;;8.82;5.30;;;;;;;;;;5031416;23;20243;-94
2021/01/14 09:58:56;;;;;;;9.30;5.30;;;;;;;;;;5005724;28;20204;-95
2021/01/14 10:04:17;;;;;;;6.28;4.93;;;;;;;;;;4994111;28;20261;-96
2021/01/14 10:09:25;;;;;;;5.10;4.40;;;;;;;;;;5074345;23;20230;-96
2021/01/14 10:11:56;;;;;;;7.50;4.30;;;;;;;;;;5014055;28;20199;-96
2021/01/14 10:14:24;;;;;;;5.68;4.65;;;;;;;;;;5019212;28;20254;-96
2021/01/14 10:16:50;;;;;;;6.15;4.65;;;;;;;;;;5017027;28;20216;-96
2021/01/14 10:19:18;;;;;;;4.55;3.70;;;;;;;;;;5019266;28;20275;-96
2021/01/14 10:21:46;;;;;;;6.20;4.75;;;;;;;;;;5020963;28;20199;-96
2021/01/14 10:24:20;;;;;;;5.35;4.30;;;;;;;;;;5020044;28;20219;-96
2021/01/14 10:26:51;;;;;;;6.77;5.90;;;;;;;;;;5031102;28;20204;-96
2021/01/14 10:29:38;;;;;;;6.00;5.40;;;;;;;;;;5026565;28;20505;-96
2021/01/14 10:32:08;;;;;;;6.57;4.60;;;;;;;;;;5010263;28;20441;-96
2021/01/14 10:34:38;;;;;;;6.38;5.00;;;;;;;;;;5025542;28;20224;-96
2021/01/14 10:37:04;;;;;;;7.63;4.40;;;;;;;;;;5021378;28;20263;-96
2021/01/14 10:42:32;;;;;;;4.03;3.57;;;;;;;;;;5021914;28;20451;-96
2021/01/14 10:45:01;;;;;;;4.17;3.73;;;;;;;;;;5025175;28;20451;-96
2021/01/14 10:47:27;;;;;;;4.43;3.40;;;;;;;;;;5023925;28;20539;-96
2021/01/14 10:49:53;;;;;;;4.35;3.80;;;;;;;;;;5027171;28;20520;-96
2021/01/14 10:52:19;;;;;;;6.30;4.13;;;;;;;;;;5029975;28;20212;-96
2021/01/14 10:54:55;;;;;;;5.80;3.77;;;;;;;;;;5030590;28;20491;-96
2021/01/14 10:57:23;;;;;;;5.13;3.83;;;;;;;;;;5027011;28;20860;-96
2021/01/14 10:59:49;;;;;;;4.90;4.20;;;;;;;;;;5028740;28;21023;-96
2021/01/14 11:02:22;;;;;;;4.67;3.87;;;;;;;;;;5030587;28;20451;-96
2021/01/14 11:04:53;;;;;;;6.17;4.00;;;;;;;;;;5025414;28;20501;-96
2021/01/14 11:07:19;;;;;;;5.23;4.03;;;;;;;;;;5027153;28;20467;-95
2021/01/14 11:09:49;;;;;;;5.40;4.10;;;;;;;;;;5021273;28;20476;-96
2021/01/14 11:12:15;;;;;;;4.95;3.75;;;;;;;;;;5014290;28;20469;-96
2021/01/14 11:14:41;;;;;;;6.70;4.00;;;;;;;;;;5021194;28;20233;-96
2021/01/14 11:17:07;;;;;;;5.57;4.50;;;;;;;;;;5019201;28;20475;-96
2021/01/14 11:19:34;;;;;;;5.13;4.10;;;;;;;;;;5020225;28;20212;-95
2021/01/14 11:22:02;;;;;;;4.43;3.70;;;;;;;;;;5019910;28;20459;-96
2021/01/14 11:24:28;;;;;;;3.87;3.50;;;;;;;;;;5023630;28;20474;-95
2021/01/14 11:26:54;;;;;;;4.93;3.90;;;;;;;;;;5020574;28;20460;-96
2021/01/14 11:29:20;;;;;;;6.70;4.43;;;;;;;;;;5024746;28;20212;-95
2021/01/14 11:31:46;;;;;;;6.30;4.60;;;;;;;;;;5022148;28;20447;-95
2021/01/14 11:34:12;;;;;;;5.82;5.22;;;;;;;;;;5020903;28;20210;-96
2021/01/14 11:36:39;;;;;;;6.50;4.63;;;;;;;;;;5021727;28;20213;-95
2021/01/14 11:39:05;;;;;;;6.75;4.78;;;;;;;;;;5023377;28;20205;-96
2021/01/14 11:41:31;;;;;;;8.40;4.90;;;;;;;;;;5023533;28;20949;-96
2021/01/14 11:43:57;;;;;;;5.38;4.00;;;;;;;;;;5018114;28;20466;-96
2021/01/14 11:46:25;;;;;;;5.78;5.03;;;;;;;;;;5021545;28;20216;-96
2021/01/14 11:48:51;;;;;;;5.97;4.25;;;;;;;;;;5019580;28;20217;-96
2021/01/14 11:51:18;;;;;;;7.13;4.82;;;;;;;;;;5023112;28;20205;-96
2021/01/14 11:53:44;;;;;;;8.27;5.57;;;;;;;;;;5023087;28;20274;-96
2021/01/14 11:56:10;;;;;;;8.03;6.43;;;;;;;;;;5023688;28;20282;-96
2021/01/14 11:58:36;;;;;;;8.35;4.50;;;;;;;;;;5021078;28;20516;-96
2021/01/14 12:01:03;;;;;;;6.40;4.53;;;;;;;;;;5022368;28;20208;-96
2021/01/14 12:03:31;;;;;;;7.57;5.60;;;;;;;;;;5022202;28;20466;-96
2021/01/14 12:05:57;;;;;;;7.05;5.15;;;;;;;;;;5020730;28;20455;-96
2021/01/14 12:08:23;;;;;;;8.18;4.82;;;;;;;;;;5023851;28;20257;-96
2021/01/14 12:10:50;;;;;;;6.43;4.50;;;;;;;;;;5020530;28;20212;-96
2021/01/14 12:13:16;;;;;;;6.03;4.67;;;;;;;;;;5018551;28;21028;-96
2021/01/14 12:15:42;;;;;;;7.10;4.93;;;;;;;;;;5012752;28;20491;-96
2021/01/14 12:18:08;;;;;;;7.13;3.97;;;;;;;;;;5029692;28;20443;-95
2021/01/14 12:20:34;;;;;;;7.10;4.43;;;;;;;;;;5033838;28;20448;-96
2021/01/14 12:23:00;;;;;;;4.50;3.40;;;;;;;;;;5021332;28;20472;-96
2021/01/14 12:25:26;;;;;;;5.37;3.97;;;;;;;;;;5022190;28;20464;-96
2021/01/14 12:27:54;;;;;;;7.03;4.17;;;;;;;;;;5018996;28;20456;-95
2021/01/14 12:30:20;;;;;;;4.57;4.10;;;;;;;;;;5021405;28;20460;-95
2021/01/14 12:32:46;;;;;;;4.67;4.20;;;;;;;;;;5020276;28;20479;-96
2021/01/14 12:35:13;;;;;;;4.73;3.50;;;;;;;;;;5021815;28;20491;-96
2021/01/14 12:37:39;;;;;;;5.30;3.80;;;;;;;;;;5020281;28;20483;-96
2021/01/14 12:40:06;;;;;;;5.40;4.37;;;;;;;;;;5023385;28;20459;-95
2021/01/14 12:42:32;;;;;;;6.67;4.77;;;;;;;;;;5021159;28;20552;-96
2021/01/14 12:45:00;;;;;;;6.28;4.80;;;;;;;;;;5022327;28;20461;-96
2021/01/14 12:47:26;;;;;;;7.07;5.20;;;;;;;;;;5002700;28;20205;-96
2021/01/14 12:49:52;;;;;;;5.50;5.00;;;;;;;;;;5019378;28;20228;-96
2021/01/14 12:52:18;;;;;;;8.07;5.15;;;;;;;;;;5022475;28;20212;-96
2021/01/14 12:54:44;;;;;;;5.38;4.43;;;;;;;;;;5021351;28;20713;-96
2021/01/14 12:57:10;;;;;;;5.75;4.85;;;;;;;;;;5022450;28;20213;-96
2021/01/14 12:59:36;;;;;;;5.20;4.70;;;;;;;;;;5020712;28;20220;-95
2021/01/14 13:02:05;;;;;;;5.28;4.72;;;;;;;;;;5022641;28;20460;-95
2021/01/14 13:04:31;;;;;;;8.48;4.97;;;;;;;;;;5013315;28;20205;-95
2021/01/14 13:06:57;;;;;;;7.50;6.17;;;;;;;;;;5022067;28;20203;-96
2021/01/14 13:09:23;;;;;;;9.35;5.30;;;;;;;;;;5022147;28;20488;-96
2021/01/14 13:11:54;;;;;;;6.33;4.53;;;;;;;;;;5018791;28;20215;-96
2021/01/14 13:14:20;;;;;;;7.10;5.28;;;;;;;;;;5022826;28;20451;-96
2021/01/14 13:16:46;;;;;;;6.20;5.30;;;;;;;;;;5019287;28;20685;-94
2021/01/14 13:19:13;;;;;;;8.18;5.60;;;;;;;;;;5022054;28;20205;-94
2021/01/14 13:21:40;;;;;;;6.28;4.60;;;;;;;;;;5019469;28;20220;-95
2021/01/14 13:24:06;;;;;;;6.35;5.10;;;;;;;;;;5021841;28;20234;-94
2021/01/14 13:26:33;;;;;;;6.22;5.28;;;;;;;;;;5019453;28;20218;-95
2021/01/14 13:28:59;;;;;;;6.15;4.93;;;;;;;;;;5021056;28;21106;-95
2021/01/14 13:31:25;;;;;;;10.75;5.43;;;;;;;;;;5022217;28;20227;-96
2021/01/14 13:33:51;;;;;;;6.53;5.60;;;;;;;;;;5020304;28;20222;-95
2021/01/14 13:36:18;;;;;;;9.00;5.80;;;;;;;;;;5022713;28;20231;-96
2021/01/14 13:38:44;;;;;;;6.90;5.63;;;;;;;;;;5018717;28;20464;-96
2021/01/14 13:41:11;;;;;;;7.07;5.90;;;;;;;;;;5020952;28;20215;-95
2021/01/14 13:43:37;;;;;;;8.27;5.68;;;;;;;;;;5019183;28;20197;-96
2021/01/14 13:46:03;;;;;;;11.05;9.48;;;;;;;;;;5021593;28;20211;-96
2021/01/14 13:48:29;;;;;;;14.10;9.82;;;;;;;;;;5020227;28;20217;-95
2021/01/14 13:50:55;;;;;;;7.82;4.90;;;;;;;;;;5020547;28;20212;-95
2021/01/14 13:53:22;;;;;;;5.82;5.20;;;;;;;;;;5020289;28;20394;-96
2021/01/14 13:55:48;;;;;;;7.35;5.00;;;;;;;;;;5018499;28;20735;-95
2021/01/14 13:58:14;;;;;;;6.55;4.30;;;;;;;;;;5018648;28;20221;-94
2021/01/14 14:00:44;;;;;;;3.17;2.88;;;;;;;;;;5013006;28;20222;-91
2021/01/14 14:03:10;;;;;;;3.10;2.80;;;;;;;;;;5020126;28;20213;-92
2021/01/14 14:05:36;;;;;;;2.65;2.42;;;;;;;;;;5019444;28;20208;-93
2021/01/14 14:08:03;;;;;;;3.85;2.50;;;;;;;;;;5023320;28;20354;-95
2021/01/14 14:10:30;;;;;;;2.83;2.53;;;;;;;;;;5017661;28;20226;-94
2021/01/14 14:12:56;;;;;;;3.05;2.40;;;;;;;;;;5020736;28;20272;-94
2021/01/14 14:15:22;;;;;;;3.22;2.95;;;;;;;;;;5020270;28;20234;-93
2021/01/14 14:17:48;;;;;;;2.85;2.40;;;;;;;;;;5019380;28;20220;-94
2021/01/14 14:20:15;;;;;;;5.35;3.00;;;;;;;;;;5020876;28;20217;-94
2021/01/14 14:22:41;;;;;;;3.15;1.80;;;;;;;;;;5012143;28;20218;-94
2021/01/14 14:25:08;;;;;;;4.00;3.03;;;;;;;;;;5020624;28;20225;-94
2021/01/14 14:27:35;;;;;;;3.83;3.53;;;;;;;;;;5018739;28;20211;-96
2021/01/14 14:30:01;;;;;;;3.50;3.22;;;;;;;;;;5021052;28;20211;-95
2021/01/14 14:32:27;;;;;;;2.70;2.23;;;;;;;;;;5018979;28;20238;-94
2021/01/14 14:34:53;;;;;;;6.45;3.38;;;;;;;;;;5019062;28;20495;-95
2021/01/14 14:37:19;;;;;;;11.38;5.55;;;;;;;;;;5019201;28;20218;-95
2021/01/14 14:39:45;;;;;;;4.55;3.70;;;;;;;;;;5007814;28;20265;-94
2021/01/14 14:42:11;;;;;;;6.00;3.77;;;;;;;;;;5021252;28;20297;-93
2021/01/14 14:44:38;;;;;;;3.27;2.97;;;;;;;;;;5018277;28;20476;-94
2021/01/14 14:47:06;;;;;;;6.07;3.50;;;;;;;;;;5015767;28;21208;-94
2021/01/14 14:49:32;;;;;;;6.10;3.80;;;;;;;;;;5017080;28;20217;-96
2021/01/14 14:51:58;;;;;;;3.58;3.10;;;;;;;;;;5022526;28;20211;-94
2021/01/14 14:54:24;;;;;;;5.15;4.22;;;;;;;;;;5020762;28;20201;-94